sensor_id;sensor_type;location;lat;lon;timestamp;temperature;humidity
20881;DHT22;10600;53.096;8.802;2022-09-17T00:00:33;11.20;99.90
20881;DHT22;10600;53.096;8.802;2022-09-17T00:01:34;11.20;99.90
20881;DHT22;10600;53.096;8.802;2022-09-17T00:02:35;11.20;99.90
20881;DHT22;10600;53.096;8.802;2022-09-17T00:03:36;11.10;99.90
20881;DHT22;10600;53.096;8.802;2022-09-17T00:04:36;11.10;99.90
20881;DHT22;10600;53.096;8.802;2022-09-17T00:05:37;11.10;99.90
20881;DHT22;10600;53.096;8.802;2022-09-17T00:06:38;11.10;99.90
20881;DHT22;10600;53.096;8.802;2022-09-17T00:07:38;11.10;99.90
20881;DHT22;10600;53.096;8.802;2022-09-17T00:08:40;11.10;99.90
20881;DHT22;10600;53.096;8.802;2022-09-17T00:09:41;11.00;99.90
20881;DHT22;10600;53.096;8.802;2022-09-17T00:10:43;11.00;99.90
20881;DHT22;10600;53.096;8.802;2022-09-17T00:11:44;11.00;99.90
20881;DHT22;10600;53.096;8.802;2022-09-17T00:12:46;11.00;99.90
20881;DHT22;10600;53.096;8.802;2022-09-17T00:13:48;11.00;99.90
20881;DHT22;10600;53.096;8.802;2022-09-17T00:14:49;11.00;99.90
20881;DHT22;10600;53.096;8.802;2022-09-17T00:15:50;11.00;99.90
20881;DHT22;10600;53.096;8.802;2022-09-17T00:16:53;10.90;99.90
20881;DHT22;10600;53.096;8.802;2022-09-17T00:17:54;10.90;99.90
20881;DHT22;10600;53.096;8.802;2022-09-17T00:18:58;10.90;99.90
20881;DHT22;10600;53.096;8.802;2022-09-17T00:19:58;10.90;99.90
20881;DHT22;10600;53.096;8.802;2022-09-17T00:20:59;10.90;99.90
20881;DHT22;10600;53.096;8.802;2022-09-17T00:22:00;10.90;99.90
20881;DHT22;10600;53.096;8.802;2022-09-17T00:23:00;10.90;99.90
20881;DHT22;10600;53.096;8.802;2022-09-17T00:24:03;10.90;99.90
20881;DHT22;10600;53.096;8.802;2022-09-17T00:25:05;10.90;99.90
20881;DHT22;10600;53.096;8.802;2022-09-17T00:26:06;10.90;99.90
20881;DHT22;10600;53.096;8.802;2022-09-17T00:27:07;10.90;99.90
20881;DHT22;10600;53.096;8.802;2022-09-17T00:28:08;10.90;99.90
20881;DHT22;10600;53.096;8.802;2022-09-17T00:29:09;10.90;99.90
20881;DHT22;10600;53.096;8.802;2022-09-17T00:30:11;10.90;99.90
20881;DHT22;10600;53.096;8.802;2022-09-17T00:31:11;10.90;99.90
20881;DHT22;10600;53.096;8.802;2022-09-17T00:32:12;10.90;99.90
20881;DHT22;10600;53.096;8.802;2022-09-17T00:33:15;10.90;99.90
20881;DHT22;10600;53.096;8.802;2022-09-17T00:34:16;10.90;99.90
20881;DHT22;10600;53.096;8.802;2022-09-17T00:35:16;10.90;99.90
20881;DHT22;10600;53.096;8.802;2022-09-17T00:36:17;10.90;99.90
20881;DHT22;10600;53.096;8.802;2022-09-17T00:37:20;10.90;99.90
20881;DHT22;10600;53.096;8.802;2022-09-17T00:38:21;10.90;99.90
20881;DHT22;10600;53.096;8.802;2022-09-17T00:39:21;10.90;99.90
20881;DHT22;10600;53.096;8.802;2022-09-17T00:40:22;10.90;99.90
20881;DHT22;10600;53.096;8.802;2022-09-17T00:41:27;10.90;99.90
20881;DHT22;10600;53.096;8.802;2022-09-17T00:42:28;10.90;99.90
20881;DHT22;10600;53.096;8.802;2022-09-17T00:43:41;10.90;99.90
20881;DHT22;10600;53.096;8.802;2022-09-17T00:44:54;10.90;99.90
20881;DHT22;10600;53.096;8.802;2022-09-17T00:45:55;10.90;99.90
20881;DHT22;10600;53.096;8.802;2022-09-17T00:46:55;10.90;99.90
20881;DHT22;10600;53.096;8.802;2022-09-17T00:48:05;10.90;99.90
20881;DHT22;10600;53.096;8.802;2022-09-17T00:49:27;10.90;99.90
20881;DHT22;10600;53.096;8.802;2022-09-17T00:50:39;10.90;99.90
20881;DHT22;10600;53.096;8.802;2022-09-17T00:51:52;10.90;99.90
20881;DHT22;10600;53.096;8.802;2022-09-17T00:54:06;10.90;99.90
20881;DHT22;10600;53.096;8.802;2022-09-17T00:55:18;10.90;99.90
20881;DHT22;10600;53.096;8.802;2022-09-17T00:56:24;10.90;99.90
20881;DHT22;10600;53.096;8.802;2022-09-17T00:57:26;10.90;99.90
20881;DHT22;10600;53.096;8.802;2022-09-17T00:58:28;10.90;99.90
20881;DHT22;10600;53.096;8.802;2022-09-17T00:59:29;10.90;99.90
20881;DHT22;10600;53.096;8.802;2022-09-17T01:00:30;10.90;99.90
20881;DHT22;10600;53.096;8.802;2022-09-17T01:01:32;10.90;99.90
20881;DHT22;10600;53.096;8.802;2022-09-17T01:02:33;10.90;99.90
20881;DHT22;10600;53.096;8.802;2022-09-17T01:03:34;10.90;99.90
20881;DHT22;10600;53.096;8.802;2022-09-17T01:04:35;10.90;99.90
20881;DHT22;10600;53.096;8.802;2022-09-17T01:05:51;10.80;99.90
20881;DHT22;10600;53.096;8.802;2022-09-17T01:11:49;10.80;99.90
20881;DHT22;10600;53.096;8.802;2022-09-17T01:16:26;10.80;99.90
20881;DHT22;10600;53.096;8.802;2022-09-17T01:18:55;10.80;99.90
20881;DHT22;10600;53.096;8.802;2022-09-17T01:23:04;10.90;99.90
20881;DHT22;10600;53.096;8.802;2022-09-17T01:25:24;10.90;99.90
20881;DHT22;10600;53.096;8.802;2022-09-17T01:34:26;11.00;99.90
20881;DHT22;10600;53.096;8.802;2022-09-17T01:35:55;11.00;99.90
20881;DHT22;10600;53.096;8.802;2022-09-17T01:37:17;11.00;99.90
20881;DHT22;10600;53.096;8.802;2022-09-17T01:38:33;11.00;99.90
20881;DHT22;10600;53.096;8.802;2022-09-17T01:40:07;11.00;99.90
20881;DHT22;10600;53.096;8.802;2022-09-17T01:42:28;11.10;99.90
20881;DHT22;10600;53.096;8.802;2022-09-17T01:43:47;11.10;99.90
20881;DHT22;10600;53.096;8.802;2022-09-17T01:45:02;11.10;99.90
20881;DHT22;10600;53.096;8.802;2022-09-17T01:46:25;11.20;99.90
20881;DHT22;10600;53.096;8.802;2022-09-17T01:49:06;11.20;99.90
20881;DHT22;10600;53.096;8.802;2022-09-17T01:50:16;11.20;99.90
20881;DHT22;10600;53.096;8.802;2022-09-17T01:51:21;11.20;99.90
20881;DHT22;10600;53.096;8.802;2022-09-17T01:52:24;11.20;99.90
20881;DHT22;10600;53.096;8.802;2022-09-17T01:54:43;11.20;99.90
20881;DHT22;10600;53.096;8.802;2022-09-17T01:55:45;11.20;99.90
20881;DHT22;10600;53.096;8.802;2022-09-17T01:57:00;11.20;99.90
20881;DHT22;10600;53.096;8.802;2022-09-17T01:58:23;11.20;99.90
20881;DHT22;10600;53.096;8.802;2022-09-17T01:59:36;11.20;99.90
20881;DHT22;10600;53.096;8.802;2022-09-17T02:00:38;11.20;99.90
20881;DHT22;10600;53.096;8.802;2022-09-17T02:01:43;11.10;99.90
20881;DHT22;10600;53.096;8.802;2022-09-17T02:04:18;11.10;99.90
20881;DHT22;10600;53.096;8.802;2022-09-17T02:05:45;11.20;99.90
20881;DHT22;10600;53.096;8.802;2022-09-17T02:06:55;11.20;99.90
20881;DHT22;10600;53.096;8.802;2022-09-17T02:08:05;11.20;99.90
20881;DHT22;10600;53.096;8.802;2022-09-17T02:09:16;11.20;99.90
20881;DHT22;10600;53.096;8.802;2022-09-17T02:10:20;11.20;99.90
20881;DHT22;10600;53.096;8.802;2022-09-17T02:11:22;11.20;99.90
20881;DHT22;10600;53.096;8.802;2022-09-17T02:12:29;11.20;99.90
20881;DHT22;10600;53.096;8.802;2022-09-17T02:14:56;11.20;99.90
20881;DHT22;10600;53.096;8.802;2022-09-17T02:16:08;11.20;99.90
20881;DHT22;10600;53.096;8.802;2022-09-17T02:17:29;11.20;99.90
20881;DHT22;10600;53.096;8.802;2022-09-17T02:19:50;11.20;99.90
20881;DHT22;10600;53.096;8.802;2022-09-17T02:22:37;11.20;99.90
20881;DHT22;10600;53.096;8.802;2022-09-17T02:23:46;11.20;99.90
20881;DHT22;10600;53.096;8.802;2022-09-17T02:25:02;11.20;99.90
20881;DHT22;10600;53.096;8.802;2022-09-17T02:26:08;11.20;99.90
20881;DHT22;10600;53.096;8.802;2022-09-17T02:29:35;11.30;99.90
20881;DHT22;10600;53.096;8.802;2022-09-17T02:30:36;11.30;99.90
20881;DHT22;10600;53.096;8.802;2022-09-17T02:31:37;11.30;99.90
20881;DHT22;10600;53.096;8.802;2022-09-17T02:32:39;11.30;99.90
20881;DHT22;10600;53.096;8.802;2022-09-17T02:33:46;11.30;99.90
20881;DHT22;10600;53.096;8.802;2022-09-17T02:34:47;11.30;99.90
20881;DHT22;10600;53.096;8.802;2022-09-17T02:35:48;11.30;99.90
20881;DHT22;10600;53.096;8.802;2022-09-17T02:36:48;11.30;99.90
20881;DHT22;10600;53.096;8.802;2022-09-17T02:37:49;11.30;99.90
20881;DHT22;10600;53.096;8.802;2022-09-17T02:38:58;11.30;99.90
20881;DHT22;10600;53.096;8.802;2022-09-17T02:40:01;11.30;99.90
20881;DHT22;10600;53.096;8.802;2022-09-17T02:41:22;11.30;99.90
20881;DHT22;10600;53.096;8.802;2022-09-17T02:43:07;11.30;99.90
20881;DHT22;10600;53.096;8.802;2022-09-17T02:45:46;11.30;99.90
20881;DHT22;10600;53.096;8.802;2022-09-17T02:48:23;11.20;99.90
20881;DHT22;10600;53.096;8.802;2022-09-17T02:52:15;11.10;99.90
20881;DHT22;10600;53.096;8.802;2022-09-17T02:58:23;11.00;99.90
20881;DHT22;10600;53.096;8.802;2022-09-17T02:59:38;11.00;99.90
20881;DHT22;10600;53.096;8.802;2022-09-17T03:00:43;11.00;99.90
20881;DHT22;10600;53.096;8.802;2022-09-17T03:04:05;10.90;99.90
20881;DHT22;10600;53.096;8.802;2022-09-17T03:05:08;10.90;99.90
20881;DHT22;10600;53.096;8.802;2022-09-17T03:06:10;10.90;99.90
20881;DHT22;10600;53.096;8.802;2022-09-17T03:07:12;10.90;99.90
20881;DHT22;10600;53.096;8.802;2022-09-17T03:08:15;10.90;99.90
20881;DHT22;10600;53.096;8.802;2022-09-17T03:09:17;10.90;99.90
20881;DHT22;10600;53.096;8.802;2022-09-17T03:10:18;10.90;99.90
20881;DHT22;10600;53.096;8.802;2022-09-17T03:11:19;10.80;99.90
20881;DHT22;10600;53.096;8.802;2022-09-17T03:12:21;10.80;99.90
20881;DHT22;10600;53.096;8.802;2022-09-17T03:13:25;10.80;99.90
20881;DHT22;10600;53.096;8.802;2022-09-17T03:14:25;10.80;99.90
20881;DHT22;10600;53.096;8.802;2022-09-17T03:15:26;10.80;99.90
20881;DHT22;10600;53.096;8.802;2022-09-17T03:16:27;10.80;99.90
20881;DHT22;10600;53.096;8.802;2022-09-17T03:17:28;10.70;99.90
20881;DHT22;10600;53.096;8.802;2022-09-17T03:18:29;10.70;99.90
20881;DHT22;10600;53.096;8.802;2022-09-17T03:19:30;10.70;99.90
20881;DHT22;10600;53.096;8.802;2022-09-17T03:20:31;10.70;99.90
20881;DHT22;10600;53.096;8.802;2022-09-17T03:21:32;10.70;99.90
20881;DHT22;10600;53.096;8.802;2022-09-17T03:22:33;10.70;99.90
20881;DHT22;10600;53.096;8.802;2022-09-17T03:23:35;10.70;99.90
20881;DHT22;10600;53.096;8.802;2022-09-17T03:24:35;10.70;99.90
20881;DHT22;10600;53.096;8.802;2022-09-17T03:25:36;10.70;99.90
20881;DHT22;10600;53.096;8.802;2022-09-17T03:26:37;10.70;99.90
20881;DHT22;10600;53.096;8.802;2022-09-17T03:27:38;10.70;99.90
20881;DHT22;10600;53.096;8.802;2022-09-17T03:28:39;10.60;99.90
20881;DHT22;10600;53.096;8.802;2022-09-17T03:29:39;10.60;99.90
20881;DHT22;10600;53.096;8.802;2022-09-17T03:30:41;10.60;99.90
20881;DHT22;10600;53.096;8.802;2022-09-17T03:31:42;10.60;99.90
20881;DHT22;10600;53.096;8.802;2022-09-17T03:32:42;10.60;99.90
20881;DHT22;10600;53.096;8.802;2022-09-17T03:33:43;10.60;99.90
20881;DHT22;10600;53.096;8.802;2022-09-17T03:34:44;10.60;99.90
20881;DHT22;10600;53.096;8.802;2022-09-17T03:35:46;10.60;99.90
20881;DHT22;10600;53.096;8.802;2022-09-17T03:36:47;10.60;99.90
20881;DHT22;10600;53.096;8.802;2022-09-17T03:37:47;10.60;99.90
20881;DHT22;10600;53.096;8.802;2022-09-17T03:38:48;10.60;99.90
20881;DHT22;10600;53.096;8.802;2022-09-17T03:39:52;10.60;99.90
20881;DHT22;10600;53.096;8.802;2022-09-17T03:41:00;10.50;99.90
20881;DHT22;10600;53.096;8.802;2022-09-17T03:42:02;10.50;99.90
20881;DHT22;10600;53.096;8.802;2022-09-17T03:43:03;10.50;99.90
20881;DHT22;10600;53.096;8.802;2022-09-17T03:44:04;10.50;99.90
20881;DHT22;10600;53.096;8.802;2022-09-17T03:45:05;10.50;99.90
20881;DHT22;10600;53.096;8.802;2022-09-17T03:46:06;10.50;99.90
20881;DHT22;10600;53.096;8.802;2022-09-17T03:47:07;10.50;99.90
20881;DHT22;10600;53.096;8.802;2022-09-17T03:48:08;10.50;99.90
20881;DHT22;10600;53.096;8.802;2022-09-17T03:49:08;10.50;99.90
20881;DHT22;10600;53.096;8.802;2022-09-17T03:50:09;10.50;99.90
20881;DHT22;10600;53.096;8.802;2022-09-17T03:51:10;10.40;99.90
20881;DHT22;10600;53.096;8.802;2022-09-17T03:52:10;10.40;99.90
20881;DHT22;10600;53.096;8.802;2022-09-17T03:53:11;10.40;99.90
20881;DHT22;10600;53.096;8.802;2022-09-17T03:54:12;10.40;99.90
20881;DHT22;10600;53.096;8.802;2022-09-17T03:55:12;10.40;99.90
20881;DHT22;10600;53.096;8.802;2022-09-17T03:56:13;10.40;99.90
20881;DHT22;10600;53.096;8.802;2022-09-17T03:57:14;10.40;99.90
20881;DHT22;10600;53.096;8.802;2022-09-17T03:58:14;10.40;99.90
20881;DHT22;10600;53.096;8.802;2022-09-17T03:59:15;10.40;99.90
20881;DHT22;10600;53.096;8.802;2022-09-17T04:00:16;10.40;99.90
20881;DHT22;10600;53.096;8.802;2022-09-17T04:01:17;10.40;99.90
20881;DHT22;10600;53.096;8.802;2022-09-17T04:02:17;10.40;99.90
20881;DHT22;10600;53.096;8.802;2022-09-17T04:03:18;10.40;99.90
20881;DHT22;10600;53.096;8.802;2022-09-17T04:04:19;10.40;99.90
20881;DHT22;10600;53.096;8.802;2022-09-17T04:05:19;10.30;99.90
20881;DHT22;10600;53.096;8.802;2022-09-17T04:06:20;10.30;99.90
20881;DHT22;10600;53.096;8.802;2022-09-17T04:07:21;10.30;99.90
20881;DHT22;10600;53.096;8.802;2022-09-17T04:08:22;10.30;99.90
20881;DHT22;10600;53.096;8.802;2022-09-17T04:09:22;10.30;99.90
20881;DHT22;10600;53.096;8.802;2022-09-17T04:10:23;10.30;99.90
20881;DHT22;10600;53.096;8.802;2022-09-17T04:11:24;10.30;99.90
20881;DHT22;10600;53.096;8.802;2022-09-17T04:12:24;10.30;99.90
20881;DHT22;10600;53.096;8.802;2022-09-17T04:13:25;10.30;99.90
20881;DHT22;10600;53.096;8.802;2022-09-17T04:14:26;10.30;99.90
20881;DHT22;10600;53.096;8.802;2022-09-17T04:15:26;10.30;99.90
20881;DHT22;10600;53.096;8.802;2022-09-17T04:16:28;10.30;99.90
20881;DHT22;10600;53.096;8.802;2022-09-17T04:17:28;10.30;99.90
20881;DHT22;10600;53.096;8.802;2022-09-17T04:18:29;10.30;99.90
20881;DHT22;10600;53.096;8.802;2022-09-17T04:19:30;10.30;99.90
20881;DHT22;10600;53.096;8.802;2022-09-17T04:20:31;10.30;99.90
20881;DHT22;10600;53.096;8.802;2022-09-17T04:21:31;10.30;99.90
20881;DHT22;10600;53.096;8.802;2022-09-17T04:22:32;10.30;99.90
20881;DHT22;10600;53.096;8.802;2022-09-17T04:23:33;10.30;99.90
20881;DHT22;10600;53.096;8.802;2022-09-17T04:24:33;10.30;99.90
20881;DHT22;10600;53.096;8.802;2022-09-17T04:25:34;10.40;99.90
20881;DHT22;10600;53.096;8.802;2022-09-17T04:26:35;10.40;99.90
20881;DHT22;10600;53.096;8.802;2022-09-17T04:27:36;10.40;99.90
20881;DHT22;10600;53.096;8.802;2022-09-17T04:28:37;10.40;99.90
20881;DHT22;10600;53.096;8.802;2022-09-17T04:29:37;10.40;99.90
20881;DHT22;10600;53.096;8.802;2022-09-17T04:30:38;10.40;99.90
20881;DHT22;10600;53.096;8.802;2022-09-17T04:31:40;10.40;99.90
20881;DHT22;10600;53.096;8.802;2022-09-17T04:32:43;10.40;99.90
20881;DHT22;10600;53.096;8.802;2022-09-17T04:33:44;10.40;99.90
20881;DHT22;10600;53.096;8.802;2022-09-17T04:34:44;10.50;99.90
20881;DHT22;10600;53.096;8.802;2022-09-17T04:35:45;10.50;99.90
20881;DHT22;10600;53.096;8.802;2022-09-17T04:36:46;10.50;99.90
20881;DHT22;10600;53.096;8.802;2022-09-17T04:37:58;10.60;99.90
20881;DHT22;10600;53.096;8.802;2022-09-17T04:38:58;10.60;99.90
20881;DHT22;10600;53.096;8.802;2022-09-17T04:39:59;10.60;99.90
20881;DHT22;10600;53.096;8.802;2022-09-17T04:41:00;10.60;99.90
20881;DHT22;10600;53.096;8.802;2022-09-17T04:42:00;10.70;99.90
20881;DHT22;10600;53.096;8.802;2022-09-17T04:43:01;10.70;99.90
20881;DHT22;10600;53.096;8.802;2022-09-17T04:44:02;10.80;99.90
20881;DHT22;10600;53.096;8.802;2022-09-17T04:45:03;10.80;99.90
20881;DHT22;10600;53.096;8.802;2022-09-17T04:46:05;10.80;99.90
20881;DHT22;10600;53.096;8.802;2022-09-17T04:47:06;10.80;99.90
20881;DHT22;10600;53.096;8.802;2022-09-17T04:48:06;10.80;99.90
20881;DHT22;10600;53.096;8.802;2022-09-17T04:49:07;10.80;99.90
20881;DHT22;10600;53.096;8.802;2022-09-17T04:50:08;10.80;99.90
20881;DHT22;10600;53.096;8.802;2022-09-17T04:51:09;10.80;99.90
20881;DHT22;10600;53.096;8.802;2022-09-17T04:52:10;10.80;99.90
20881;DHT22;10600;53.096;8.802;2022-09-17T04:53:10;10.90;99.90
20881;DHT22;10600;53.096;8.802;2022-09-17T04:54:11;10.90;99.90
20881;DHT22;10600;53.096;8.802;2022-09-17T04:55:13;10.90;99.90
20881;DHT22;10600;53.096;8.802;2022-09-17T04:56:14;10.80;99.90
20881;DHT22;10600;53.096;8.802;2022-09-17T04:57:14;10.80;99.90
20881;DHT22;10600;53.096;8.802;2022-09-17T04:58:15;10.80;99.90
20881;DHT22;10600;53.096;8.802;2022-09-17T04:59:16;10.80;99.90
20881;DHT22;10600;53.096;8.802;2022-09-17T05:00:18;10.80;99.90
20881;DHT22;10600;53.096;8.802;2022-09-17T05:01:19;10.70;99.90
20881;DHT22;10600;53.096;8.802;2022-09-17T05:02:19;10.70;99.90
20881;DHT22;10600;53.096;8.802;2022-09-17T05:03:20;10.70;99.90
20881;DHT22;10600;53.096;8.802;2022-09-17T05:04:21;10.70;99.90
20881;DHT22;10600;53.096;8.802;2022-09-17T05:05:22;10.70;99.90
20881;DHT22;10600;53.096;8.802;2022-09-17T05:06:23;10.70;99.90
20881;DHT22;10600;53.096;8.802;2022-09-17T05:07:24;10.70;99.90
20881;DHT22;10600;53.096;8.802;2022-09-17T05:08:24;10.70;99.90
20881;DHT22;10600;53.096;8.802;2022-09-17T05:09:25;10.70;99.90
20881;DHT22;10600;53.096;8.802;2022-09-17T05:10:26;10.70;99.90
20881;DHT22;10600;53.096;8.802;2022-09-17T05:11:27;10.70;99.90
20881;DHT22;10600;53.096;8.802;2022-09-17T05:12:28;10.70;99.90
20881;DHT22;10600;53.096;8.802;2022-09-17T05:13:28;10.70;99.90
20881;DHT22;10600;53.096;8.802;2022-09-17T05:14:29;10.70;99.90
20881;DHT22;10600;53.096;8.802;2022-09-17T05:15:30;10.70;99.90
20881;DHT22;10600;53.096;8.802;2022-09-17T05:16:30;10.70;99.90
20881;DHT22;10600;53.096;8.802;2022-09-17T05:17:31;10.70;99.90
20881;DHT22;10600;53.096;8.802;2022-09-17T05:18:32;10.60;99.90
20881;DHT22;10600;53.096;8.802;2022-09-17T05:19:32;10.60;99.90
20881;DHT22;10600;53.096;8.802;2022-09-17T05:20:33;10.60;99.90
20881;DHT22;10600;53.096;8.802;2022-09-17T05:21:34;10.60;99.90
20881;DHT22;10600;53.096;8.802;2022-09-17T05:22:34;10.50;99.90
20881;DHT22;10600;53.096;8.802;2022-09-17T05:23:35;10.50;99.90
20881;DHT22;10600;53.096;8.802;2022-09-17T05:24:35;10.50;99.90
20881;DHT22;10600;53.096;8.802;2022-09-17T05:25:38;10.50;99.90
20881;DHT22;10600;53.096;8.802;2022-09-17T05:26:39;10.50;99.90
20881;DHT22;10600;53.096;8.802;2022-09-17T05:27:40;10.50;99.90
20881;DHT22;10600;53.096;8.802;2022-09-17T05:28:41;10.50;99.90
20881;DHT22;10600;53.096;8.802;2022-09-17T05:29:42;10.50;99.90
20881;DHT22;10600;53.096;8.802;2022-09-17T05:30:42;10.50;99.90
20881;DHT22;10600;53.096;8.802;2022-09-17T05:31:43;10.50;99.90
20881;DHT22;10600;53.096;8.802;2022-09-17T05:32:44;10.40;99.90
20881;DHT22;10600;53.096;8.802;2022-09-17T05:33:44;10.40;99.90
20881;DHT22;10600;53.096;8.802;2022-09-17T05:34:45;10.40;99.90
20881;DHT22;10600;53.096;8.802;2022-09-17T05:35:46;10.40;99.90
20881;DHT22;10600;53.096;8.802;2022-09-17T05:36:46;10.40;99.90
20881;DHT22;10600;53.096;8.802;2022-09-17T05:37:48;10.40;99.90
20881;DHT22;10600;53.096;8.802;2022-09-17T05:38:49;10.40;99.90
20881;DHT22;10600;53.096;8.802;2022-09-17T05:39:49;10.40;99.90
20881;DHT22;10600;53.096;8.802;2022-09-17T05:40:50;10.40;99.90
20881;DHT22;10600;53.096;8.802;2022-09-17T05:41:52;10.40;99.90
20881;DHT22;10600;53.096;8.802;2022-09-17T05:42:57;10.40;99.90
20881;DHT22;10600;53.096;8.802;2022-09-17T05:43:58;10.40;99.90
20881;DHT22;10600;53.096;8.802;2022-09-17T05:44:59;10.50;99.90
20881;DHT22;10600;53.096;8.802;2022-09-17T05:46:04;10.40;99.90
20881;DHT22;10600;53.096;8.802;2022-09-17T05:47:05;10.50;99.90
20881;DHT22;10600;53.096;8.802;2022-09-17T05:48:10;10.50;99.90
20881;DHT22;10600;53.096;8.802;2022-09-17T05:49:12;10.50;99.90
20881;DHT22;10600;53.096;8.802;2022-09-17T05:50:14;10.40;99.90
20881;DHT22;10600;53.096;8.802;2022-09-17T05:51:15;10.40;99.90
20881;DHT22;10600;53.096;8.802;2022-09-17T05:52:16;10.40;99.90
20881;DHT22;10600;53.096;8.802;2022-09-17T05:53:16;10.40;99.90
20881;DHT22;10600;53.096;8.802;2022-09-17T05:54:17;10.40;99.90
20881;DHT22;10600;53.096;8.802;2022-09-17T05:55:19;10.40;99.90
20881;DHT22;10600;53.096;8.802;2022-09-17T05:56:21;10.40;99.90
20881;DHT22;10600;53.096;8.802;2022-09-17T05:57:23;10.40;99.90
20881;DHT22;10600;53.096;8.802;2022-09-17T05:58:24;10.30;99.90
20881;DHT22;10600;53.096;8.802;2022-09-17T05:59:25;10.30;99.90
20881;DHT22;10600;53.096;8.802;2022-09-17T06:00:27;10.30;99.90
20881;DHT22;10600;53.096;8.802;2022-09-17T06:01:29;10.30;99.90
20881;DHT22;10600;53.096;8.802;2022-09-17T06:02:29;10.30;99.90
20881;DHT22;10600;53.096;8.802;2022-09-17T06:03:33;10.30;99.90
20881;DHT22;10600;53.096;8.802;2022-09-17T06:04:34;10.30;99.90
20881;DHT22;10600;53.096;8.802;2022-09-17T06:05:34;10.30;99.90
20881;DHT22;10600;53.096;8.802;2022-09-17T06:06:35;10.30;99.90
20881;DHT22;10600;53.096;8.802;2022-09-17T06:07:37;10.20;99.90
20881;DHT22;10600;53.096;8.802;2022-09-17T06:08:38;10.20;99.90
20881;DHT22;10600;53.096;8.802;2022-09-17T06:09:39;10.20;99.90
20881;DHT22;10600;53.096;8.802;2022-09-17T06:10:40;10.20;99.90
20881;DHT22;10600;53.096;8.802;2022-09-17T06:11:41;10.20;99.90
20881;DHT22;10600;53.096;8.802;2022-09-17T06:12:41;10.20;99.90
20881;DHT22;10600;53.096;8.802;2022-09-17T06:13:42;10.20;99.90
20881;DHT22;10600;53.096;8.802;2022-09-17T06:14:43;10.20;99.90
20881;DHT22;10600;53.096;8.802;2022-09-17T06:15:49;10.20;99.90
20881;DHT22;10600;53.096;8.802;2022-09-17T06:16:50;10.20;99.90
20881;DHT22;10600;53.096;8.802;2022-09-17T06:17:51;10.20;99.90
20881;DHT22;10600;53.096;8.802;2022-09-17T06:18:52;10.20;99.90
20881;DHT22;10600;53.096;8.802;2022-09-17T06:19:53;10.20;99.90
20881;DHT22;10600;53.096;8.802;2022-09-17T06:20:54;10.20;99.90
20881;DHT22;10600;53.096;8.802;2022-09-17T06:21:56;10.20;99.90
20881;DHT22;10600;53.096;8.802;2022-09-17T06:22:57;10.20;99.90
20881;DHT22;10600;53.096;8.802;2022-09-17T06:23:59;10.20;99.90
20881;DHT22;10600;53.096;8.802;2022-09-17T06:25:00;10.20;99.90
20881;DHT22;10600;53.096;8.802;2022-09-17T06:26:03;10.20;99.90
20881;DHT22;10600;53.096;8.802;2022-09-17T06:27:03;10.20;99.90
20881;DHT22;10600;53.096;8.802;2022-09-17T06:28:04;10.20;99.90
20881;DHT22;10600;53.096;8.802;2022-09-17T06:29:05;10.20;99.90
20881;DHT22;10600;53.096;8.802;2022-09-17T06:30:06;10.30;99.90
20881;DHT22;10600;53.096;8.802;2022-09-17T06:31:08;10.30;99.90
20881;DHT22;10600;53.096;8.802;2022-09-17T06:32:08;10.30;99.90
20881;DHT22;10600;53.096;8.802;2022-09-17T06:33:13;10.30;99.90
20881;DHT22;10600;53.096;8.802;2022-09-17T06:34:14;10.30;99.90
20881;DHT22;10600;53.096;8.802;2022-09-17T06:35:15;10.30;99.90
20881;DHT22;10600;53.096;8.802;2022-09-17T06:36:16;10.30;99.90
20881;DHT22;10600;53.096;8.802;2022-09-17T06:37:17;10.40;99.90
20881;DHT22;10600;53.096;8.802;2022-09-17T06:38:18;10.40;99.90
20881;DHT22;10600;53.096;8.802;2022-09-17T06:39:19;10.40;99.90
20881;DHT22;10600;53.096;8.802;2022-09-17T06:40:19;10.40;99.90
20881;DHT22;10600;53.096;8.802;2022-09-17T06:41:22;10.40;99.90
20881;DHT22;10600;53.096;8.802;2022-09-17T06:42:23;10.40;99.90
20881;DHT22;10600;53.096;8.802;2022-09-17T06:43:25;10.40;99.90
20881;DHT22;10600;53.096;8.802;2022-09-17T06:44:25;10.50;99.90
20881;DHT22;10600;53.096;8.802;2022-09-17T06:45:27;10.50;99.90
20881;DHT22;10600;53.096;8.802;2022-09-17T06:46:28;10.50;99.90
20881;DHT22;10600;53.096;8.802;2022-09-17T06:47:28;10.50;99.90
20881;DHT22;10600;53.096;8.802;2022-09-17T06:48:32;10.50;99.90
20881;DHT22;10600;53.096;8.802;2022-09-17T06:49:33;10.50;99.90
20881;DHT22;10600;53.096;8.802;2022-09-17T06:50:33;10.60;99.90
20881;DHT22;10600;53.096;8.802;2022-09-17T06:51:34;10.60;99.90
20881;DHT22;10600;53.096;8.802;2022-09-17T06:52:35;10.60;99.90
20881;DHT22;10600;53.096;8.802;2022-09-17T06:53:36;10.60;99.90
20881;DHT22;10600;53.096;8.802;2022-09-17T06:54:37;10.60;99.90
20881;DHT22;10600;53.096;8.802;2022-09-17T06:55:38;10.70;99.90
20881;DHT22;10600;53.096;8.802;2022-09-17T06:56:38;10.70;99.90
20881;DHT22;10600;53.096;8.802;2022-09-17T06:57:39;10.70;99.90
20881;DHT22;10600;53.096;8.802;2022-09-17T06:58:40;10.70;99.90
20881;DHT22;10600;53.096;8.802;2022-09-17T06:59:43;10.80;99.90
20881;DHT22;10600;53.096;8.802;2022-09-17T07:00:44;10.80;99.90
20881;DHT22;10600;53.096;8.802;2022-09-17T07:01:46;10.90;99.90
20881;DHT22;10600;53.096;8.802;2022-09-17T07:03:00;10.90;99.90
20881;DHT22;10600;53.096;8.802;2022-09-17T07:04:00;10.90;99.90
20881;DHT22;10600;53.096;8.802;2022-09-17T07:05:01;10.90;99.90
20881;DHT22;10600;53.096;8.802;2022-09-17T07:06:02;11.00;99.90
20881;DHT22;10600;53.096;8.802;2022-09-17T07:07:03;11.00;99.90
20881;DHT22;10600;53.096;8.802;2022-09-17T07:08:05;11.00;99.90
20881;DHT22;10600;53.096;8.802;2022-09-17T07:09:05;11.10;99.90
20881;DHT22;10600;53.096;8.802;2022-09-17T07:10:07;11.10;99.90
20881;DHT22;10600;53.096;8.802;2022-09-17T07:11:08;11.20;99.90
20881;DHT22;10600;53.096;8.802;2022-09-17T07:12:08;11.20;99.90
20881;DHT22;10600;53.096;8.802;2022-09-17T07:13:09;11.20;99.90
20881;DHT22;10600;53.096;8.802;2022-09-17T07:14:10;11.20;99.90
20881;DHT22;10600;53.096;8.802;2022-09-17T07:15:11;11.30;99.90
20881;DHT22;10600;53.096;8.802;2022-09-17T07:16:15;11.30;99.90
20881;DHT22;10600;53.096;8.802;2022-09-17T07:17:16;11.40;99.90
20881;DHT22;10600;53.096;8.802;2022-09-17T07:18:16;11.40;99.90
20881;DHT22;10600;53.096;8.802;2022-09-17T07:19:17;11.40;99.90
20881;DHT22;10600;53.096;8.802;2022-09-17T07:20:18;11.50;99.90
20881;DHT22;10600;53.096;8.802;2022-09-17T07:21:18;11.50;99.90
20881;DHT22;10600;53.096;8.802;2022-09-17T07:22:19;11.60;99.90
20881;DHT22;10600;53.096;8.802;2022-09-17T07:23:25;11.60;99.90
20881;DHT22;10600;53.096;8.802;2022-09-17T07:24:26;11.70;99.90
20881;DHT22;10600;53.096;8.802;2022-09-17T07:25:27;11.70;99.90